sensor_id;sensor_type;location;lat;lon;timestamp;temperature;humidity
29551;DHT22;16488;52.396;10.696;2024-01-16T00:01:46;1.40;99.90
29551;DHT22;16488;52.396;10.696;2024-01-16T00:04:12;1.40;99.90
29551;DHT22;16488;52.396;10.696;2024-01-16T00:06:42;1.40;99.90
29551;DHT22;16488;52.396;10.696;2024-01-16T00:09:08;1.40;99.90
29551;DHT22;16488;52.396;10.696;2024-01-16T00:11:40;1.50;99.90
29551;DHT22;16488;52.396;10.696;2024-01-16T00:14:06;1.40;99.90
29551;DHT22;16488;52.396;10.696;2024-01-16T00:16:32;1.40;99.90
29551;DHT22;16488;52.396;10.696;2024-01-16T00:18:57;1.40;99.90
29551;DHT22;16488;52.396;10.696;2024-01-16T00:21:23;1.40;99.90
29551;DHT22;16488;52.396;10.696;2024-01-16T00:23:49;1.40;99.90
29551;DHT22;16488;52.396;10.696;2024-01-16T00:26:21;1.40;99.90
29551;DHT22;16488;52.396;10.696;2024-01-16T00:28:47;1.40;99.90
29551;DHT22;16488;52.396;10.696;2024-01-16T00:31:12;1.40;99.90
29551;DHT22;16488;52.396;10.696;2024-01-16T00:33:38;1.40;99.90
29551;DHT22;16488;52.396;10.696;2024-01-16T00:36:05;1.40;99.90
29551;DHT22;16488;52.396;10.696;2024-01-16T00:38:33;1.40;99.90
29551;DHT22;16488;52.396;10.696;2024-01-16T00:40:59;1.30;99.90
29551;DHT22;16488;52.396;10.696;2024-01-16T00:43:25;1.40;99.90
29551;DHT22;16488;52.396;10.696;2024-01-16T00:45:50;1.30;99.90
29551;DHT22;16488;52.396;10.696;2024-01-16T00:48:16;1.40;99.90
29551;DHT22;16488;52.396;10.696;2024-01-16T00:50:41;1.40;99.90
29551;DHT22;16488;52.396;10.696;2024-01-16T00:53:07;1.30;99.90
29551;DHT22;16488;52.396;10.696;2024-01-16T00:55:33;1.30;99.90
29551;DHT22;16488;52.396;10.696;2024-01-16T00:57:58;1.30;99.90
29551;DHT22;16488;52.396;10.696;2024-01-16T01:00:24;1.30;99.90
29551;DHT22;16488;52.396;10.696;2024-01-16T01:02:50;1.30;99.90
29551;DHT22;16488;52.396;10.696;2024-01-16T01:05:15;1.30;99.90
29551;DHT22;16488;52.396;10.696;2024-01-16T01:07:41;1.30;99.90
29551;DHT22;16488;52.396;10.696;2024-01-16T01:10:06;1.30;99.90
29551;DHT22;16488;52.396;10.696;2024-01-16T01:12:32;1.30;99.90
29551;DHT22;16488;52.396;10.696;2024-01-16T01:14:58;1.30;99.90
29551;DHT22;16488;52.396;10.696;2024-01-16T01:17:23;1.30;99.90
29551;DHT22;16488;52.396;10.696;2024-01-16T01:19:50;1.20;99.90
29551;DHT22;16488;52.396;10.696;2024-01-16T01:22:15;1.20;99.90
29551;DHT22;16488;52.396;10.696;2024-01-16T01:24:41;1.10;99.90
29551;DHT22;16488;52.396;10.696;2024-01-16T01:27:06;1.10;99.90
29551;DHT22;16488;52.396;10.696;2024-01-16T01:29:32;1.10;99.90
29551;DHT22;16488;52.396;10.696;2024-01-16T01:31:57;1.10;99.90
29551;DHT22;16488;52.396;10.696;2024-01-16T01:34:23;1.10;99.90
29551;DHT22;16488;52.396;10.696;2024-01-16T01:36:49;1.10;99.90
29551;DHT22;16488;52.396;10.696;2024-01-16T01:39:14;1.00;99.90
29551;DHT22;16488;52.396;10.696;2024-01-16T01:41:40;1.00;99.90
29551;DHT22;16488;52.396;10.696;2024-01-16T01:44:06;1.00;99.90
29551;DHT22;16488;52.396;10.696;2024-01-16T01:46:32;0.90;99.90
29551;DHT22;16488;52.396;10.696;2024-01-16T01:48:59;0.90;99.90
29551;DHT22;16488;52.396;10.696;2024-01-16T01:51:24;1.00;99.90
29551;DHT22;16488;52.396;10.696;2024-01-16T01:53:51;1.00;99.90
29551;DHT22;16488;52.396;10.696;2024-01-16T01:56:19;1.00;99.90
29551;DHT22;16488;52.396;10.696;2024-01-16T01:58:52;1.00;99.90
29551;DHT22;16488;52.396;10.696;2024-01-16T02:01:19;1.10;99.90
29551;DHT22;16488;52.396;10.696;2024-01-16T02:03:46;1.10;99.90
29551;DHT22;16488;52.396;10.696;2024-01-16T02:06:13;1.10;99.90
29551;DHT22;16488;52.396;10.696;2024-01-16T02:08:39;1.10;99.90
29551;DHT22;16488;52.396;10.696;2024-01-16T02:11:05;1.10;99.90
29551;DHT22;16488;52.396;10.696;2024-01-16T02:13:31;1.10;99.90
29551;DHT22;16488;52.396;10.696;2024-01-16T02:15:57;1.10;99.90
29551;DHT22;16488;52.396;10.696;2024-01-16T02:18:22;1.10;99.90
29551;DHT22;16488;52.396;10.696;2024-01-16T02:20:48;1.10;99.90
29551;DHT22;16488;52.396;10.696;2024-01-16T02:23:14;1.10;99.90
29551;DHT22;16488;52.396;10.696;2024-01-16T02:25:41;1.00;99.90
29551;DHT22;16488;52.396;10.696;2024-01-16T02:28:07;1.00;99.90
29551;DHT22;16488;52.396;10.696;2024-01-16T02:30:33;1.00;99.90
29551;DHT22;16488;52.396;10.696;2024-01-16T02:32:59;1.00;99.90
29551;DHT22;16488;52.396;10.696;2024-01-16T02:35:25;0.90;99.90
29551;DHT22;16488;52.396;10.696;2024-01-16T02:37:50;1.00;99.90
29551;DHT22;16488;52.396;10.696;2024-01-16T02:40:16;1.00;99.90
29551;DHT22;16488;52.396;10.696;2024-01-16T02:42:41;1.00;99.90
29551;DHT22;16488;52.396;10.696;2024-01-16T02:45:07;1.00;99.90
29551;DHT22;16488;52.396;10.696;2024-01-16T02:47:33;1.00;99.90
29551;DHT22;16488;52.396;10.696;2024-01-16T02:49:59;1.00;99.90
29551;DHT22;16488;52.396;10.696;2024-01-16T02:52:25;1.10;99.90
29551;DHT22;16488;52.396;10.696;2024-01-16T02:54:50;1.00;99.90
29551;DHT22;16488;52.396;10.696;2024-01-16T02:57:16;0.90;99.90
29551;DHT22;16488;52.396;10.696;2024-01-16T02:59:44;0.90;99.90
29551;DHT22;16488;52.396;10.696;2024-01-16T03:02:10;0.80;99.90
29551;DHT22;16488;52.396;10.696;2024-01-16T03:04:37;0.90;99.90
29551;DHT22;16488;52.396;10.696;2024-01-16T03:07:02;0.80;99.90
29551;DHT22;16488;52.396;10.696;2024-01-16T03:09:28;0.90;99.90
29551;DHT22;16488;52.396;10.696;2024-01-16T03:11:53;0.90;99.90
29551;DHT22;16488;52.396;10.696;2024-01-16T03:14:19;0.90;99.90
29551;DHT22;16488;52.396;10.696;2024-01-16T03:16:45;1.00;99.90
29551;DHT22;16488;52.396;10.696;2024-01-16T03:19:12;1.00;99.90
29551;DHT22;16488;52.396;10.696;2024-01-16T03:21:37;0.90;99.90
29551;DHT22;16488;52.396;10.696;2024-01-16T03:24:04;0.90;99.90
29551;DHT22;16488;52.396;10.696;2024-01-16T03:26:31;0.80;99.90
29551;DHT22;16488;52.396;10.696;2024-01-16T03:28:57;0.80;99.90
29551;DHT22;16488;52.396;10.696;2024-01-16T03:31:23;0.80;99.90
29551;DHT22;16488;52.396;10.696;2024-01-16T03:33:49;0.80;99.90
29551;DHT22;16488;52.396;10.696;2024-01-16T03:36:15;0.90;99.90
29551;DHT22;16488;52.396;10.696;2024-01-16T03:38:44;0.90;99.90
29551;DHT22;16488;52.396;10.696;2024-01-16T03:41:13;0.90;99.90
29551;DHT22;16488;52.396;10.696;2024-01-16T03:43:39;0.90;99.90
29551;DHT22;16488;52.396;10.696;2024-01-16T03:46:05;0.90;99.90
29551;DHT22;16488;52.396;10.696;2024-01-16T03:48:32;0.90;99.90
29551;DHT22;16488;52.396;10.696;2024-01-16T03:50:57;0.90;99.90
29551;DHT22;16488;52.396;10.696;2024-01-16T03:53:23;0.90;99.90
29551;DHT22;16488;52.396;10.696;2024-01-16T03:55:49;0.90;99.90
29551;DHT22;16488;52.396;10.696;2024-01-16T03:58:15;0.90;99.90
29551;DHT22;16488;52.396;10.696;2024-01-16T04:00:41;1.00;99.90
29551;DHT22;16488;52.396;10.696;2024-01-16T04:03:07;1.00;99.90
29551;DHT22;16488;52.396;10.696;2024-01-16T04:05:33;1.00;99.90
29551;DHT22;16488;52.396;10.696;2024-01-16T04:07:59;1.00;99.90
29551;DHT22;16488;52.396;10.696;2024-01-16T04:10:25;1.00;99.90
29551;DHT22;16488;52.396;10.696;2024-01-16T04:12:51;1.00;99.90
29551;DHT22;16488;52.396;10.696;2024-01-16T04:15:17;0.90;99.90
29551;DHT22;16488;52.396;10.696;2024-01-16T04:17:43;1.00;99.90
29551;DHT22;16488;52.396;10.696;2024-01-16T04:20:09;0.90;99.90
29551;DHT22;16488;52.396;10.696;2024-01-16T04:22:35;0.90;99.90
29551;DHT22;16488;52.396;10.696;2024-01-16T04:25:01;0.90;99.90
29551;DHT22;16488;52.396;10.696;2024-01-16T04:27:27;0.90;99.90
29551;DHT22;16488;52.396;10.696;2024-01-16T04:29:53;0.90;99.90
29551;DHT22;16488;52.396;10.696;2024-01-16T04:32:19;0.80;99.90
29551;DHT22;16488;52.396;10.696;2024-01-16T04:34:44;0.80;99.90
29551;DHT22;16488;52.396;10.696;2024-01-16T04:37:10;0.90;99.90
29551;DHT22;16488;52.396;10.696;2024-01-16T04:39:36;0.90;99.90
29551;DHT22;16488;52.396;10.696;2024-01-16T04:42:02;0.80;99.90
29551;DHT22;16488;52.396;10.696;2024-01-16T04:44:27;0.80;99.90
29551;DHT22;16488;52.396;10.696;2024-01-16T04:46:53;0.80;99.90
29551;DHT22;16488;52.396;10.696;2024-01-16T04:49:18;0.70;99.90
29551;DHT22;16488;52.396;10.696;2024-01-16T04:51:44;0.60;99.90
29551;DHT22;16488;52.396;10.696;2024-01-16T04:54:10;0.50;99.90
29551;DHT22;16488;52.396;10.696;2024-01-16T04:56:37;0.50;99.90
29551;DHT22;16488;52.396;10.696;2024-01-16T04:59:02;0.50;99.90
29551;DHT22;16488;52.396;10.696;2024-01-16T05:01:28;0.40;99.90
29551;DHT22;16488;52.396;10.696;2024-01-16T05:03:53;0.40;99.90
29551;DHT22;16488;52.396;10.696;2024-01-16T05:06:20;0.50;99.90
29551;DHT22;16488;52.396;10.696;2024-01-16T05:08:46;0.50;99.90
29551;DHT22;16488;52.396;10.696;2024-01-16T05:11:12;0.50;99.90
29551;DHT22;16488;52.396;10.696;2024-01-16T05:13:37;0.40;99.90
29551;DHT22;16488;52.396;10.696;2024-01-16T05:16:03;0.50;99.90
29551;DHT22;16488;52.396;10.696;2024-01-16T05:18:29;0.50;99.90
29551;DHT22;16488;52.396;10.696;2024-01-16T05:20:55;0.50;99.90
29551;DHT22;16488;52.396;10.696;2024-01-16T05:23:22;0.50;99.90
29551;DHT22;16488;52.396;10.696;2024-01-16T05:25:47;0.50;99.90
29551;DHT22;16488;52.396;10.696;2024-01-16T05:28:13;0.50;99.90
29551;DHT22;16488;52.396;10.696;2024-01-16T05:30:38;0.50;99.90
29551;DHT22;16488;52.396;10.696;2024-01-16T05:33:04;0.50;99.90
29551;DHT22;16488;52.396;10.696;2024-01-16T05:35:29;0.60;99.90
29551;DHT22;16488;52.396;10.696;2024-01-16T05:37:56;0.60;99.90
29551;DHT22;16488;52.396;10.696;2024-01-16T05:40:22;0.70;99.90
29551;DHT22;16488;52.396;10.696;2024-01-16T05:42:50;0.60;99.90
29551;DHT22;16488;52.396;10.696;2024-01-16T05:45:16;0.60;99.90
29551;DHT22;16488;52.396;10.696;2024-01-16T05:47:42;0.60;99.90
29551;DHT22;16488;52.396;10.696;2024-01-16T05:50:08;0.60;99.90
29551;DHT22;16488;52.396;10.696;2024-01-16T05:52:34;0.60;99.90
29551;DHT22;16488;52.396;10.696;2024-01-16T05:55:00;0.70;99.90
29551;DHT22;16488;52.396;10.696;2024-01-16T05:57:26;0.70;99.90
29551;DHT22;16488;52.396;10.696;2024-01-16T05:59:51;0.60;99.90
29551;DHT22;16488;52.396;10.696;2024-01-16T06:02:17;0.60;99.90
29551;DHT22;16488;52.396;10.696;2024-01-16T06:04:43;0.50;99.90
29551;DHT22;16488;52.396;10.696;2024-01-16T06:07:08;0.60;99.90
29551;DHT22;16488;52.396;10.696;2024-01-16T06:09:39;0.60;99.90
29551;DHT22;16488;52.396;10.696;2024-01-16T06:12:07;0.60;99.90
29551;DHT22;16488;52.396;10.696;2024-01-16T06:14:33;0.60;99.90
29551;DHT22;16488;52.396;10.696;2024-01-16T06:16:59;0.50;99.90
29551;DHT22;16488;52.396;10.696;2024-01-16T06:19:25;0.40;99.90
29551;DHT22;16488;52.396;10.696;2024-01-16T06:21:50;0.40;99.90
29551;DHT22;16488;52.396;10.696;2024-01-16T06:24:16;0.50;99.90
29551;DHT22;16488;52.396;10.696;2024-01-16T06:26:42;0.40;99.90
29551;DHT22;16488;52.396;10.696;2024-01-16T06:29:07;0.40;99.90
29551;DHT22;16488;52.396;10.696;2024-01-16T06:31:33;0.30;99.90
29551;DHT22;16488;52.396;10.696;2024-01-16T06:33:59;0.20;99.90
29551;DHT22;16488;52.396;10.696;2024-01-16T06:36:25;0.10;99.90
29551;DHT22;16488;52.396;10.696;2024-01-16T06:38:51;0.00;99.90
29551;DHT22;16488;52.396;10.696;2024-01-16T06:41:16;0.10;99.90
29551;DHT22;16488;52.396;10.696;2024-01-16T06:43:42;0.10;99.90
29551;DHT22;16488;52.396;10.696;2024-01-16T06:46:07;0.10;99.90
29551;DHT22;16488;52.396;10.696;2024-01-16T06:48:35;0.10;99.90
29551;DHT22;16488;52.396;10.696;2024-01-16T06:51:02;0.10;99.90
29551;DHT22;16488;52.396;10.696;2024-01-16T06:53:28;0.00;99.90
29551;DHT22;16488;52.396;10.696;2024-01-16T06:55:53;-0.10;99.90
29551;DHT22;16488;52.396;10.696;2024-01-16T06:58:19;-0.10;99.90
29551;DHT22;16488;52.396;10.696;2024-01-16T07:00:45;-0.10;99.90
29551;DHT22;16488;52.396;10.696;2024-01-16T07:03:12;-0.20;99.90
29551;DHT22;16488;52.396;10.696;2024-01-16T07:05:38;-0.20;99.90
29551;DHT22;16488;52.396;10.696;2024-01-16T07:08:04;-0.20;99.90
29551;DHT22;16488;52.396;10.696;2024-01-16T07:10:29;-0.10;99.90
29551;DHT22;16488;52.396;10.696;2024-01-16T07:12:55;-0.20;99.90
29551;DHT22;16488;52.396;10.696;2024-01-16T07:15:21;-0.10;99.90
29551;DHT22;16488;52.396;10.696;2024-01-16T07:17:47;0.00;99.90
29551;DHT22;16488;52.396;10.696;2024-01-16T07:20:13;0.10;99.90
29551;DHT22;16488;52.396;10.696;2024-01-16T07:22:38;0.10;99.90
29551;DHT22;16488;52.396;10.696;2024-01-16T07:25:07;0.10;99.90
29551;DHT22;16488;52.396;10.696;2024-01-16T07:27:33;0.10;99.90
29551;DHT22;16488;52.396;10.696;2024-01-16T07:29:59;0.10;99.90
29551;DHT22;16488;52.396;10.696;2024-01-16T07:32:25;0.10;99.90
29551;DHT22;16488;52.396;10.696;2024-01-16T07:34:50;0.10;99.90
29551;DHT22;16488;52.396;10.696;2024-01-16T07:37:18;0.10;99.90
29551;DHT22;16488;52.396;10.696;2024-01-16T07:39:43;0.10;99.90
29551;DHT22;16488;52.396;10.696;2024-01-16T07:42:09;0.20;99.90
29551;DHT22;16488;52.396;10.696;2024-01-16T07:44:36;0.20;99.90
29551;DHT22;16488;52.396;10.696;2024-01-16T07:47:01;0.20;99.90
29551;DHT22;16488;52.396;10.696;2024-01-16T07:49:27;0.20;99.90
29551;DHT22;16488;52.396;10.696;2024-01-16T07:51:53;0.20;99.90
29551;DHT22;16488;52.396;10.696;2024-01-16T07:54:18;0.30;99.90
29551;DHT22;16488;52.396;10.696;2024-01-16T07:56:44;0.30;99.90
29551;DHT22;16488;52.396;10.696;2024-01-16T07:59:10;0.30;99.90
29551;DHT22;16488;52.396;10.696;2024-01-16T08:01:36;0.30;99.90
29551;DHT22;16488;52.396;10.696;2024-01-16T08:04:03;0.30;99.90
29551;DHT22;16488;52.396;10.696;2024-01-16T08:06:29;0.40;99.90
29551;DHT22;16488;52.396;10.696;2024-01-16T08:08:55;0.40;99.90
29551;DHT22;16488;52.396;10.696;2024-01-16T08:11:21;0.40;99.90
29551;DHT22;16488;52.396;10.696;2024-01-16T08:13:47;0.40;99.90
29551;DHT22;16488;52.396;10.696;2024-01-16T08:16:12;0.40;99.90
29551;DHT22;16488;52.396;10.696;2024-01-16T08:18:38;0.50;99.90
29551;DHT22;16488;52.396;10.696;2024-01-16T08:21:04;0.50;99.90
29551;DHT22;16488;52.396;10.696;2024-01-16T08:23:29;0.50;99.90
29551;DHT22;16488;52.396;10.696;2024-01-16T08:25:55;0.60;99.90
29551;DHT22;16488;52.396;10.696;2024-01-16T08:28:21;0.70;99.90
29551;DHT22;16488;52.396;10.696;2024-01-16T08:30:49;0.70;99.90
29551;DHT22;16488;52.396;10.696;2024-01-16T08:33:15;0.80;99.90
29551;DHT22;16488;52.396;10.696;2024-01-16T08:35:40;0.80;99.90
29551;DHT22;16488;52.396;10.696;2024-01-16T08:38:06;0.70;99.90
29551;DHT22;16488;52.396;10.696;2024-01-16T08:40:32;0.80;99.90
29551;DHT22;16488;52.396;10.696;2024-01-16T08:42:57;0.80;99.90
29551;DHT22;16488;52.396;10.696;2024-01-16T08:45:23;0.80;99.90
29551;DHT22;16488;52.396;10.696;2024-01-16T08:47:51;0.90;99.90
29551;DHT22;16488;52.396;10.696;2024-01-16T08:50:16;0.90;99.90
29551;DHT22;16488;52.396;10.696;2024-01-16T08:52:42;1.00;99.90
29551;DHT22;16488;52.396;10.696;2024-01-16T08:55:08;1.00;99.90
29551;DHT22;16488;52.396;10.696;2024-01-16T08:57:37;1.00;99.90
29551;DHT22;16488;52.396;10.696;2024-01-16T09:00:05;1.10;99.90
29551;DHT22;16488;52.396;10.696;2024-01-16T09:02:31;1.10;99.90
29551;DHT22;16488;52.396;10.696;2024-01-16T09:04:57;1.10;99.90
29551;DHT22;16488;52.396;10.696;2024-01-16T09:07:24;1.00;99.90
29551;DHT22;16488;52.396;10.696;2024-01-16T09:09:50;1.00;99.90
29551;DHT22;16488;52.396;10.696;2024-01-16T09:12:15;1.10;99.90
29551;DHT22;16488;52.396;10.696;2024-01-16T09:14:41;1.10;99.90
29551;DHT22;16488;52.396;10.696;2024-01-16T09:17:07;1.10;99.90
29551;DHT22;16488;52.396;10.696;2024-01-16T09:19:33;1.20;99.90
29551;DHT22;16488;52.396;10.696;2024-01-16T09:21:58;1.20;99.90
29551;DHT22;16488;52.396;10.696;2024-01-16T09:24:24;1.40;99.90
29551;DHT22;16488;52.396;10.696;2024-01-16T09:26:50;1.40;99.90
29551;DHT22;16488;52.396;10.696;2024-01-16T09:29:15;1.40;99.90
29551;DHT22;16488;52.396;10.696;2024-01-16T09:31:41;1.40;99.90
29551;DHT22;16488;52.396;10.696;2024-01-16T09:34:07;1.40;99.90
29551;DHT22;16488;52.396;10.696;2024-01-16T09:36:33;1.30;99.90
29551;DHT22;16488;52.396;10.696;2024-01-16T09:39:01;1.50;99.90
29551;DHT22;16488;52.396;10.696;2024-01-16T09:41:27;1.60;99.90
29551;DHT22;16488;52.396;10.696;2024-01-16T09:43:53;1.70;99.90
29551;DHT22;16488;52.396;10.696;2024-01-16T09:46:22;1.80;99.90
29551;DHT22;16488;52.396;10.696;2024-01-16T09:48:51;1.80;99.90
29551;DHT22;16488;52.396;10.696;2024-01-16T09:51:19;1.90;99.90
29551;DHT22;16488;52.396;10.696;2024-01-16T09:53:45;1.80;99.90
29551;DHT22;16488;52.396;10.696;2024-01-16T09:56:15;1.70;99.90
29551;DHT22;16488;52.396;10.696;2024-01-16T09:58:43;1.60;99.90
29551;DHT22;16488;52.396;10.696;2024-01-16T10:01:11;1.60;99.90
29551;DHT22;16488;52.396;10.696;2024-01-16T10:03:37;1.60;99.90
29551;DHT22;16488;52.396;10.696;2024-01-16T10:06:07;1.70;99.90
29551;DHT22;16488;52.396;10.696;2024-01-16T10:08:33;1.70;99.90
29551;DHT22;16488;52.396;10.696;2024-01-16T10:10:59;1.80;99.90
29551;DHT22;16488;52.396;10.696;2024-01-16T10:13:26;2.00;99.90
29551;DHT22;16488;52.396;10.696;2024-01-16T10:15:52;2.10;99.90
29551;DHT22;16488;52.396;10.696;2024-01-16T10:18:27;2.10;99.90
29551;DHT22;16488;52.396;10.696;2024-01-16T10:20:53;2.10;99.90
29551;DHT22;16488;52.396;10.696;2024-01-16T10:23:29;2.00;99.90
29551;DHT22;16488;52.396;10.696;2024-01-16T10:26:12;2.00;99.90
29551;DHT22;16488;52.396;10.696;2024-01-16T10:28:42;2.10;99.90
29551;DHT22;16488;52.396;10.696;2024-01-16T10:31:09;2.40;99.90
29551;DHT22;16488;52.396;10.696;2024-01-16T10:33:36;2.60;99.90
29551;DHT22;16488;52.396;10.696;2024-01-16T10:36:14;2.80;99.90
29551;DHT22;16488;52.396;10.696;2024-01-16T10:38:42;3.10;99.90
29551;DHT22;16488;52.396;10.696;2024-01-16T10:41:13;3.20;99.90
29551;DHT22;16488;52.396;10.696;2024-01-16T10:43:40;3.00;99.90
29551;DHT22;16488;52.396;10.696;2024-01-16T10:46:13;2.80;99.90
29551;DHT22;16488;52.396;10.696;2024-01-16T10:48:44;2.70;99.90
29551;DHT22;16488;52.396;10.696;2024-01-16T10:51:13;2.40;99.90
29551;DHT22;16488;52.396;10.696;2024-01-16T10:53:44;2.30;99.90
29551;DHT22;16488;52.396;10.696;2024-01-16T10:56:10;2.20;99.90
29551;DHT22;16488;52.396;10.696;2024-01-16T10:58:42;2.20;99.90
29551;DHT22;16488;52.396;10.696;2024-01-16T11:01:15;2.30;99.90
29551;DHT22;16488;52.396;10.696;2024-01-16T11:03:48;2.20;99.90
29551;DHT22;16488;52.396;10.696;2024-01-16T11:06:15;2.10;99.90
29551;DHT22;16488;52.396;10.696;2024-01-16T11:08:42;2.10;99.90
29551;DHT22;16488;52.396;10.696;2024-01-16T11:11:10;2.10;99.90
29551;DHT22;16488;52.396;10.696;2024-01-16T11:13:38;2.10;99.90
29551;DHT22;16488;52.396;10.696;2024-01-16T11:16:04;2.10;99.90
29551;DHT22;16488;52.396;10.696;2024-01-16T11:18:31;2.10;99.90
29551;DHT22;16488;52.396;10.696;2024-01-16T11:21:10;2.20;99.90
29551;DHT22;16488;52.396;10.696;2024-01-16T11:23:37;2.40;99.90
29551;DHT22;16488;52.396;10.696;2024-01-16T11:28:58;2.90;99.90
29551;DHT22;16488;52.396;10.696;2024-01-16T11:31:34;3.00;99.90
29551;DHT22;16488;52.396;10.696;2024-01-16T11:34:02;2.90;99.90
29551;DHT22;16488;52.396;10.696;2024-01-16T11:36:49;2.70;99.90
29551;DHT22;16488;52.396;10.696;2024-01-16T11:39:25;2.60;99.90
29551;DHT22;16488;52.396;10.696;2024-01-16T11:41:52;2.50;99.90
29551;DHT22;16488;52.396;10.696;2024-01-16T11:44:49;2.40;99.90
29551;DHT22;16488;52.396;10.696;2024-01-16T11:47:20;2.40;99.90
29551;DHT22;16488;52.396;10.696;2024-01-16T11:49:50;2.40;99.90
29551;DHT22;16488;52.396;10.696;2024-01-16T11:52:43;2.90;99.90
29551;DHT22;16488;52.396;10.696;2024-01-16T11:55:28;3.60;99.90
29551;DHT22;16488;52.396;10.696;2024-01-16T12:00:35;3.70;99.90
29551;DHT22;16488;52.396;10.696;2024-01-16T12:03:02;3.60;99.90
29551;DHT22;16488;52.396;10.696;2024-01-16T12:05:29;3.60;99.90
29551;DHT22;16488;52.396;10.696;2024-01-16T12:07:55;3.50;99.90
29551;DHT22;16488;52.396;10.696;2024-01-16T12:10:24;3.40;99.90
29551;DHT22;16488;52.396;10.696;2024-01-16T12:12:51;3.30;99.90
29551;DHT22;16488;52.396;10.696;2024-01-16T12:15:21;3.00;99.90
29551;DHT22;16488;52.396;10.696;2024-01-16T12:18:00;2.90;99.90
29551;DHT22;16488;52.396;10.696;2024-01-16T12:20:29;2.90;99.90
29551;DHT22;16488;52.396;10.696;2024-01-16T12:22:59;3.30;99.90
29551;DHT22;16488;52.396;10.696;2024-01-16T12:25:26;3.40;99.90
29551;DHT22;16488;52.396;10.696;2024-01-16T12:28:10;3.40;99.90
29551;DHT22;16488;52.396;10.696;2024-01-16T12:30:37;3.30;99.90
29551;DHT22;16488;52.396;10.696;2024-01-16T12:33:11;3.20;99.90
29551;DHT22;16488;52.396;10.696;2024-01-16T12:35:42;3.20;99.90
29551;DHT22;16488;52.396;10.696;2024-01-16T12:38:10;3.10;99.90
29551;DHT22;16488;52.396;10.696;2024-01-16T12:40:39;3.00;99.90
29551;DHT22;16488;52.396;10.696;2024-01-16T12:43:08;3.00;99.90
29551;DHT22;16488;52.396;10.696;2024-01-16T12:45:35;3.00;99.90
29551;DHT22;16488;52.396;10.696;2024-01-16T12:48:01;3.00;99.90
29551;DHT22;16488;52.396;10.696;2024-01-16T12:50:30;2.90;99.90
29551;DHT22;16488;52.396;10.696;2024-01-16T12:53:09;2.90;99.90
29551;DHT22;16488;52.396;10.696;2024-01-16T12:55:40;2.90;99.90
29551;DHT22;16488;52.396;10.696;2024-01-16T12:58:18;2.90;99.90
29551;DHT22;16488;52.396;10.696;2024-01-16T13:00:50;2.80;99.90
29551;DHT22;16488;52.396;10.696;2024-01-16T13:03:20;2.80;99.90
29551;DHT22;16488;52.396;10.696;2024-01-16T13:05:56;3.00;99.90
29551;DHT22;16488;52.396;10.696;2024-01-16T13:08:22;3.20;99.90
29551;DHT22;16488;52.396;10.696;2024-01-16T13:11:04;3.30;99.90
29551;DHT22;16488;52.396;10.696;2024-01-16T13:13:30;3.20;99.90
29551;DHT22;16488;52.396;10.696;2024-01-16T13:15:56;3.20;99.90
29551;DHT22;16488;52.396;10.696;2024-01-16T13:18:27;3.30;99.90
29551;DHT22;16488;52.396;10.696;2024-01-16T13:20:54;3.30;99.90
29551;DHT22;16488;52.396;10.696;2024-01-16T13:23:20;3.20;99.90
29551;DHT22;16488;52.396;10.696;2024-01-16T13:25:48;3.00;99.90
29551;DHT22;16488;52.396;10.696;2024-01-16T13:28:15;2.80;99.90
29551;DHT22;16488;52.396;10.696;2024-01-16T13:30:41;2.60;99.90
29551;DHT22;16488;52.396;10.696;2024-01-16T13:33:07;2.50;99.90
29551;DHT22;16488;52.396;10.696;2024-01-16T13:35:41;2.50;99.90
29551;DHT22;16488;52.396;10.696;2024-01-16T13:38:08;2.40;99.90
29551;DHT22;16488;52.396;10.696;2024-01-16T13:40:35;2.40;99.90
29551;DHT22;16488;52.396;10.696;2024-01-16T13:43:03;2.30;99.90
29551;DHT22;16488;52.396;10.696;2024-01-16T13:45:28;2.30;99.90
29551;DHT22;16488;52.396;10.696;2024-01-16T13:47:55;2.30;99.90
29551;DHT22;16488;52.396;10.696;2024-01-16T13:50:21;2.30;99.90
29551;DHT22;16488;52.396;10.696;2024-01-16T13:52:47;2.20;99.90
29551;DHT22;16488;52.396;10.696;2024-01-16T13:55:13;2.20;99.90
29551;DHT22;16488;52.396;10.696;2024-01-16T13:57:38;2.20;99.90
29551;DHT22;16488;52.396;10.696;2024-01-16T14:00:07;2.10;99.90
29551;DHT22;16488;52.396;10.696;2024-01-16T14:02:33;2.10;99.90
29551;DHT22;16488;52.396;10.696;2024-01-16T14:05:04;2.10;99.90
29551;DHT22;16488;52.396;10.696;2024-01-16T14:07:31;2.10;99.90
29551;DHT22;16488;52.396;10.696;2024-01-16T14:09:57;2.10;99.90
29551;DHT22;16488;52.396;10.696;2024-01-16T14:12:23;2.10;99.90
29551;DHT22;16488;52.396;10.696;2024-01-16T14:14:50;2.10;99.90
29551;DHT22;16488;52.396;10.696;2024-01-16T14:17:16;2.00;99.90
29551;DHT22;16488;52.396;10.696;2024-01-16T14:19:42;2.10;99.90
29551;DHT22;16488;52.396;10.696;2024-01-16T14:22:08;2.00;99.90
29551;DHT22;16488;52.396;10.696;2024-01-16T14:24:33;2.00;99.90
29551;DHT22;16488;52.396;10.696;2024-01-16T14:26:59;2.00;99.90
29551;DHT22;16488;52.396;10.696;2024-01-16T14:29:25;1.90;99.90
29551;DHT22;16488;52.396;10.696;2024-01-16T14:31:52;1.90;99.90
29551;DHT22;16488;52.396;10.696;2024-01-16T14:34:17;1.90;99.90
29551;DHT22;16488;52.396;10.696;2024-01-16T14:36:45;1.90;99.90
29551;DHT22;16488;52.396;10.696;2024-01-16T14:39:10;1.90;99.90
29551;DHT22;16488;52.396;10.696;2024-01-16T14:41:41;1.80;99.90
29551;DHT22;16488;52.396;10.696;2024-01-16T14:44:09;1.90;99.90
29551;DHT22;16488;52.396;10.696;2024-01-16T14:46:35;1.90;99.90
29551;DHT22;16488;52.396;10.696;2024-01-16T14:49:01;1.80;99.90
29551;DHT22;16488;52.396;10.696;2024-01-16T14:51:27;1.80;99.90
29551;DHT22;16488;52.396;10.696;2024-01-16T14:53:53;1.70;99.90
29551;DHT22;16488;52.396;10.696;2024-01-16T14:56:19;1.80;99.90
29551;DHT22;16488;52.396;10.696;2024-01-16T14:58:45;1.80;99.90
29551;DHT22;16488;52.396;10.696;2024-01-16T15:01:11;1.80;99.90
29551;DHT22;16488;52.396;10.696;2024-01-16T15:03:37;1.80;99.90
29551;DHT22;16488;52.396;10.696;2024-01-16T15:06:03;1.80;99.90
29551;DHT22;16488;52.396;10.696;2024-01-16T15:08:31;1.80;99.90
29551;DHT22;16488;52.396;10.696;2024-01-16T15:10:58;1.70;99.90
29551;DHT22;16488;52.396;10.696;2024-01-16T15:13:27;1.60;99.90
29551;DHT22;16488;52.396;10.696;2024-01-16T15:15:53;1.60;99.90
29551;DHT22;16488;52.396;10.696;2024-01-16T15:18:21;1.60;99.90
29551;DHT22;16488;52.396;10.696;2024-01-16T15:20:47;1.70;99.90
29551;DHT22;16488;52.396;10.696;2024-01-16T15:23:12;1.70;99.90
29551;DHT22;16488;52.396;10.696;2024-01-16T15:25:38;1.60;99.90
29551;DHT22;16488;52.396;10.696;2024-01-16T15:28:04;1.60;99.90
29551;DHT22;16488;52.396;10.696;2024-01-16T15:30:30;1.60;99.90
29551;DHT22;16488;52.396;10.696;2024-01-16T15:33:01;1.60;99.90
29551;DHT22;16488;52.396;10.696;2024-01-16T15:35:29;1.60;99.90